sensor_id;sensor_type;location;lat;lon;timestamp;temperature;humidity
19561;DHT22;9927;47.792;10.616;2023-02-23T04:02:21;8.50;99.90
19561;DHT22;9927;47.792;10.616;2023-02-23T04:05:16;8.40;99.90
19561;DHT22;9927;47.792;10.616;2023-02-23T04:08:05;8.30;99.90
19561;DHT22;9927;47.792;10.616;2023-02-23T04:10:59;8.20;99.90
19561;DHT22;9927;47.792;10.616;2023-02-23T04:13:50;8.20;99.90
19561;DHT22;9927;47.792;10.616;2023-02-23T04:16:21;8.20;99.90
19561;DHT22;9927;47.792;10.616;2023-02-23T04:18:48;8.30;99.90
19561;DHT22;9927;47.792;10.616;2023-02-23T04:21:16;8.30;99.90
19561;DHT22;9927;47.792;10.616;2023-02-23T04:23:43;8.30;99.90
19561;DHT22;9927;47.792;10.616;2023-02-23T04:26:11;8.30;99.90
19561;DHT22;9927;47.792;10.616;2023-02-23T04:28:38;8.40;99.90
19561;DHT22;9927;47.792;10.616;2023-02-23T04:31:05;8.40;99.90
19561;DHT22;9927;47.792;10.616;2023-02-23T04:33:32;8.40;99.90
19561;DHT22;9927;47.792;10.616;2023-02-23T04:35:59;8.50;99.90
19561;DHT22;9927;47.792;10.616;2023-02-23T04:38:27;8.50;99.90
19561;DHT22;9927;47.792;10.616;2023-02-23T04:40:54;8.50;99.90
19561;DHT22;9927;47.792;10.616;2023-02-23T04:43:21;8.50;99.90
19561;DHT22;9927;47.792;10.616;2023-02-23T04:45:49;8.50;99.90
19561;DHT22;9927;47.792;10.616;2023-02-23T04:48:16;8.50;99.90
19561;DHT22;9927;47.792;10.616;2023-02-23T04:50:43;8.60;99.90
19561;DHT22;9927;47.792;10.616;2023-02-23T04:53:10;8.60;99.90
19561;DHT22;9927;47.792;10.616;2023-02-23T04:55:38;8.60;99.90
19561;DHT22;9927;47.792;10.616;2023-02-23T04:58:05;8.70;99.90
19561;DHT22;9927;47.792;10.616;2023-02-23T05:00:32;8.70;99.90
19561;DHT22;9927;47.792;10.616;2023-02-23T05:03:00;8.60;99.90
19561;DHT22;9927;47.792;10.616;2023-02-23T05:05:27;8.60;99.90
19561;DHT22;9927;47.792;10.616;2023-02-23T05:07:54;8.70;99.90
19561;DHT22;9927;47.792;10.616;2023-02-23T05:10:22;8.60;99.90
19561;DHT22;9927;47.792;10.616;2023-02-23T05:12:49;8.70;99.90
19561;DHT22;9927;47.792;10.616;2023-02-23T05:15:16;8.70;99.90
19561;DHT22;9927;47.792;10.616;2023-02-23T05:17:43;8.60;99.90
19561;DHT22;9927;47.792;10.616;2023-02-23T05:20:12;8.60;99.90
19561;DHT22;9927;47.792;10.616;2023-02-23T05:22:40;8.60;99.90
19561;DHT22;9927;47.792;10.616;2023-02-23T05:25:07;8.60;99.90
19561;DHT22;9927;47.792;10.616;2023-02-23T05:27:36;8.60;99.90
19561;DHT22;9927;47.792;10.616;2023-02-23T05:30:05;8.60;99.90
19561;DHT22;9927;47.792;10.616;2023-02-23T05:32:33;8.60;99.90
19561;DHT22;9927;47.792;10.616;2023-02-23T05:35:01;8.70;99.90
19561;DHT22;9927;47.792;10.616;2023-02-23T05:37:29;8.70;99.90
19561;DHT22;9927;47.792;10.616;2023-02-23T05:39:56;8.70;99.90
19561;DHT22;9927;47.792;10.616;2023-02-23T05:42:23;8.70;99.90
19561;DHT22;9927;47.792;10.616;2023-02-23T05:44:51;8.60;99.90
19561;DHT22;9927;47.792;10.616;2023-02-23T05:47:18;8.70;99.90
19561;DHT22;9927;47.792;10.616;2023-02-23T05:49:45;8.70;99.90
19561;DHT22;9927;47.792;10.616;2023-02-23T05:52:12;8.70;99.90
19561;DHT22;9927;47.792;10.616;2023-02-23T05:54:39;8.70;99.90
19561;DHT22;9927;47.792;10.616;2023-02-23T05:57:07;8.60;99.90
19561;DHT22;9927;47.792;10.616;2023-02-23T05:59:34;8.60;99.90
19561;DHT22;9927;47.792;10.616;2023-02-23T06:02:01;8.60;99.90
19561;DHT22;9927;47.792;10.616;2023-02-23T06:04:32;8.60;99.90
19561;DHT22;9927;47.792;10.616;2023-02-23T06:06:59;8.60;99.90
19561;DHT22;9927;47.792;10.616;2023-02-23T06:09:26;8.60;99.90
19561;DHT22;9927;47.792;10.616;2023-02-23T06:11:54;8.60;99.90
19561;DHT22;9927;47.792;10.616;2023-02-23T06:14:21;8.60;99.90
19561;DHT22;9927;47.792;10.616;2023-02-23T06:16:48;8.60;99.90
19561;DHT22;9927;47.792;10.616;2023-02-23T06:19:15;8.60;99.90
19561;DHT22;9927;47.792;10.616;2023-02-23T06:21:43;8.60;99.90
19561;DHT22;9927;47.792;10.616;2023-02-23T06:24:10;8.60;99.90
19561;DHT22;9927;47.792;10.616;2023-02-23T06:26:38;8.60;99.90
19561;DHT22;9927;47.792;10.616;2023-02-23T06:29:05;8.70;99.90
19561;DHT22;9927;47.792;10.616;2023-02-23T06:31:32;8.70;99.90
19561;DHT22;9927;47.792;10.616;2023-02-23T06:34:00;8.70;99.90
19561;DHT22;9927;47.792;10.616;2023-02-23T06:36:27;8.70;99.90
19561;DHT22;9927;47.792;10.616;2023-02-23T06:38:58;8.80;99.90
19561;DHT22;9927;47.792;10.616;2023-02-23T06:41:25;8.90;99.90
19561;DHT22;9927;47.792;10.616;2023-02-23T06:43:53;8.90;99.90
19561;DHT22;9927;47.792;10.616;2023-02-23T06:46:20;8.90;99.90
19561;DHT22;9927;47.792;10.616;2023-02-23T06:48:49;9.00;99.90
19561;DHT22;9927;47.792;10.616;2023-02-23T06:51:16;9.00;99.90
19561;DHT22;9927;47.792;10.616;2023-02-23T06:53:44;9.00;99.90
19561;DHT22;9927;47.792;10.616;2023-02-23T06:56:11;9.00;99.90
19561;DHT22;9927;47.792;10.616;2023-02-23T06:58:40;9.00;99.90
19561;DHT22;9927;47.792;10.616;2023-02-23T07:01:09;9.20;99.90
19561;DHT22;9927;47.792;10.616;2023-02-23T07:03:38;9.20;99.90
19561;DHT22;9927;47.792;10.616;2023-02-23T07:06:06;9.20;99.90
19561;DHT22;9927;47.792;10.616;2023-02-23T07:08:33;9.20;99.90
19561;DHT22;9927;47.792;10.616;2023-02-23T07:11:19;9.30;99.90
19561;DHT22;9927;47.792;10.616;2023-02-23T07:13:46;9.30;99.90
19561;DHT22;9927;47.792;10.616;2023-02-23T07:16:14;9.30;99.90
19561;DHT22;9927;47.792;10.616;2023-02-23T07:18:42;9.40;99.90
19561;DHT22;9927;47.792;10.616;2023-02-23T07:21:09;9.60;99.90
19561;DHT22;9927;47.792;10.616;2023-02-23T07:23:36;9.60;99.90
19561;DHT22;9927;47.792;10.616;2023-02-23T07:26:04;9.70;99.90
19561;DHT22;9927;47.792;10.616;2023-02-23T07:28:31;9.80;99.90
19561;DHT22;9927;47.792;10.616;2023-02-23T07:30:58;9.90;99.90
19561;DHT22;9927;47.792;10.616;2023-02-23T07:33:26;9.90;99.90
19561;DHT22;9927;47.792;10.616;2023-02-23T07:35:53;10.00;99.90
19561;DHT22;9927;47.792;10.616;2023-02-23T07:38:20;9.90;99.90
19561;DHT22;9927;47.792;10.616;2023-02-23T07:40:49;9.90;99.90
19561;DHT22;9927;47.792;10.616;2023-02-23T07:43:16;10.00;99.90
19561;DHT22;9927;47.792;10.616;2023-02-23T07:45:43;9.90;99.90
19561;DHT22;9927;47.792;10.616;2023-02-23T07:48:12;9.90;99.90
19561;DHT22;9927;47.792;10.616;2023-02-23T07:50:40;10.00;99.90
19561;DHT22;9927;47.792;10.616;2023-02-23T07:53:08;10.00;99.90
19561;DHT22;9927;47.792;10.616;2023-02-23T07:55:35;10.00;99.90
19561;DHT22;9927;47.792;10.616;2023-02-23T07:58:04;10.00;99.90
19561;DHT22;9927;47.792;10.616;2023-02-23T08:00:33;10.10;99.90
19561;DHT22;9927;47.792;10.616;2023-02-23T08:03:00;10.10;99.90
19561;DHT22;9927;47.792;10.616;2023-02-23T08:05:27;10.20;99.90
19561;DHT22;9927;47.792;10.616;2023-02-23T08:07:54;10.30;99.90
19561;DHT22;9927;47.792;10.616;2023-02-23T08:10:23;10.30;99.90
19561;DHT22;9927;47.792;10.616;2023-02-23T08:12:51;10.20;99.90
19561;DHT22;9927;47.792;10.616;2023-02-23T08:15:18;10.40;99.90
19561;DHT22;9927;47.792;10.616;2023-02-23T08:17:46;10.40;99.90
19561;DHT22;9927;47.792;10.616;2023-02-23T08:20:13;10.40;99.90
19561;DHT22;9927;47.792;10.616;2023-02-23T08:22:41;10.60;99.90
19561;DHT22;9927;47.792;10.616;2023-02-23T08:25:16;10.60;99.90
19561;DHT22;9927;47.792;10.616;2023-02-23T08:27:44;10.60;99.90
19561;DHT22;9927;47.792;10.616;2023-02-23T08:30:12;10.60;99.90
19561;DHT22;9927;47.792;10.616;2023-02-23T08:32:40;10.50;99.90
19561;DHT22;9927;47.792;10.616;2023-02-23T08:35:09;10.40;99.90
19561;DHT22;9927;47.792;10.616;2023-02-23T08:37:36;10.50;99.90
19561;DHT22;9927;47.792;10.616;2023-02-23T08:40:04;10.70;99.90
19561;DHT22;9927;47.792;10.616;2023-02-23T08:42:31;10.60;99.90
19561;DHT22;9927;47.792;10.616;2023-02-23T08:44:58;10.70;99.90
19561;DHT22;9927;47.792;10.616;2023-02-23T08:47:27;10.90;99.90
19561;DHT22;9927;47.792;10.616;2023-02-23T08:49:54;10.90;99.90
19561;DHT22;9927;47.792;10.616;2023-02-23T08:52:22;10.80;99.90
19561;DHT22;9927;47.792;10.616;2023-02-23T08:54:49;11.00;99.90
19561;DHT22;9927;47.792;10.616;2023-02-23T08:57:17;11.10;99.90
19561;DHT22;9927;47.792;10.616;2023-02-23T08:59:45;11.10;99.90
19561;DHT22;9927;47.792;10.616;2023-02-23T09:02:13;11.10;99.90
19561;DHT22;9927;47.792;10.616;2023-02-23T09:04:41;11.10;99.90
19561;DHT22;9927;47.792;10.616;2023-02-23T09:07:13;11.20;99.90
19561;DHT22;9927;47.792;10.616;2023-02-23T09:12:08;10.90;99.90
19561;DHT22;9927;47.792;10.616;2023-02-23T09:14:35;11.00;99.90
19561;DHT22;9927;47.792;10.616;2023-02-23T09:17:03;11.10;99.90
19561;DHT22;9927;47.792;10.616;2023-02-23T09:19:30;11.00;99.90
19561;DHT22;9927;47.792;10.616;2023-02-23T09:21:57;10.90;99.90
19561;DHT22;9927;47.792;10.616;2023-02-23T09:24:24;10.80;99.90
19561;DHT22;9927;47.792;10.616;2023-02-23T09:26:51;11.00;99.90
19561;DHT22;9927;47.792;10.616;2023-02-23T09:29:20;11.30;99.90
19561;DHT22;9927;47.792;10.616;2023-02-23T09:31:47;11.00;99.90
19561;DHT22;9927;47.792;10.616;2023-02-23T09:34:18;10.90;99.90
19561;DHT22;9927;47.792;10.616;2023-02-23T09:36:45;10.90;99.90
19561;DHT22;9927;47.792;10.616;2023-02-23T09:39:12;10.70;99.90
19561;DHT22;9927;47.792;10.616;2023-02-23T09:47:33;10.40;99.90
19561;DHT22;9927;47.792;10.616;2023-02-23T09:50:22;10.40;99.90
19561;DHT22;9927;47.792;10.616;2023-02-23T09:53:01;10.30;99.90
19561;DHT22;9927;47.792;10.616;2023-02-23T09:55:30;10.30;99.90
19561;DHT22;9927;47.792;10.616;2023-02-23T09:58:06;10.50;99.90
19561;DHT22;9927;47.792;10.616;2023-02-23T10:00:43;10.50;99.90
19561;DHT22;9927;47.792;10.616;2023-02-23T10:03:30;10.50;99.90
19561;DHT22;9927;47.792;10.616;2023-02-23T10:06:02;10.70;99.90
19561;DHT22;9927;47.792;10.616;2023-02-23T10:09:01;10.70;99.90
19561;DHT22;9927;47.792;10.616;2023-02-23T10:11:50;10.70;99.90
19561;DHT22;9927;47.792;10.616;2023-02-23T10:14:41;10.60;99.90
19561;DHT22;9927;47.792;10.616;2023-02-23T10:17:32;10.60;99.90
19561;DHT22;9927;47.792;10.616;2023-02-23T10:20:24;10.90;99.90
19561;DHT22;9927;47.792;10.616;2023-02-23T10:23:01;11.00;99.90
19561;DHT22;9927;47.792;10.616;2023-02-23T10:25:31;11.00;99.90
19561;DHT22;9927;47.792;10.616;2023-02-23T10:28:01;11.20;99.90
19561;DHT22;9927;47.792;10.616;2023-02-23T10:30:31;11.30;99.90
19561;DHT22;9927;47.792;10.616;2023-02-23T10:35:29;11.30;99.90
19561;DHT22;9927;47.792;10.616;2023-02-23T10:37:59;11.30;99.90
19561;DHT22;9927;47.792;10.616;2023-02-23T10:40:31;11.60;99.90
19561;DHT22;9927;47.792;10.616;2023-02-23T10:42:59;11.60;99.90
19561;DHT22;9927;47.792;10.616;2023-02-23T10:45:28;11.90;99.90
19561;DHT22;9927;47.792;10.616;2023-02-23T10:50:24;12.00;99.90
19561;DHT22;9927;47.792;10.616;2023-02-23T10:53:03;12.20;99.90
19561;DHT22;9927;47.792;10.616;2023-02-23T10:55:35;12.40;99.90
19561;DHT22;9927;47.792;10.616;2023-02-23T10:58:17;12.40;99.90
19561;DHT22;9927;47.792;10.616;2023-02-23T11:00:59;12.80;99.90
19561;DHT22;9927;47.792;10.616;2023-02-23T11:03:36;12.90;99.90
19561;DHT22;9927;47.792;10.616;2023-02-23T11:06:29;12.70;99.90
19561;DHT22;9927;47.792;10.616;2023-02-23T11:08:56;12.30;99.90
19561;DHT22;9927;47.792;10.616;2023-02-23T11:11:26;11.90;99.90
19561;DHT22;9927;47.792;10.616;2023-02-23T11:13:57;11.90;99.90
19561;DHT22;9927;47.792;10.616;2023-02-23T11:16:28;11.90;99.90
19561;DHT22;9927;47.792;10.616;2023-02-23T11:19:01;11.80;99.90
19561;DHT22;9927;47.792;10.616;2023-02-23T11:21:34;12.00;99.90
19561;DHT22;9927;47.792;10.616;2023-02-23T11:26:43;12.30;99.90
19561;DHT22;9927;47.792;10.616;2023-02-23T11:31:53;11.90;99.90
19561;DHT22;9927;47.792;10.616;2023-02-23T11:34:41;11.90;99.90
19561;DHT22;9927;47.792;10.616;2023-02-23T11:42:20;11.60;99.90
19561;DHT22;9927;47.792;10.616;2023-02-23T11:47:30;11.70;99.90
19561;DHT22;9927;47.792;10.616;2023-02-23T11:49:58;11.80;99.90
19561;DHT22;9927;47.792;10.616;2023-02-23T11:52:26;11.90;99.90
19561;DHT22;9927;47.792;10.616;2023-02-23T11:55:04;12.00;99.90
19561;DHT22;9927;47.792;10.616;2023-02-23T11:57:34;12.10;99.90
19561;DHT22;9927;47.792;10.616;2023-02-23T12:00:20;12.00;99.90
19561;DHT22;9927;47.792;10.616;2023-02-23T12:02:49;12.10;99.90
19561;DHT22;9927;47.792;10.616;2023-02-23T12:05:27;12.20;99.90
19561;DHT22;9927;47.792;10.616;2023-02-23T12:08:00;12.00;99.90
19561;DHT22;9927;47.792;10.616;2023-02-23T12:10:41;12.00;99.90
19561;DHT22;9927;47.792;10.616;2023-02-23T12:13:36;12.00;99.90
19561;DHT22;9927;47.792;10.616;2023-02-23T12:16:22;12.00;99.90
19561;DHT22;9927;47.792;10.616;2023-02-23T12:21:38;12.00;99.90
19561;DHT22;9927;47.792;10.616;2023-02-23T12:26:43;12.20;99.90
19561;DHT22;9927;47.792;10.616;2023-02-23T12:29:20;12.30;99.90
19561;DHT22;9927;47.792;10.616;2023-02-23T12:31:59;12.40;99.90
19561;DHT22;9927;47.792;10.616;2023-02-23T12:34:43;12.50;99.90
19561;DHT22;9927;47.792;10.616;2023-02-23T12:45:19;13.10;99.90
19561;DHT22;9927;47.792;10.616;2023-02-23T12:47:59;13.10;99.90
19561;DHT22;9927;47.792;10.616;2023-02-23T12:50:38;13.30;99.90
19561;DHT22;9927;47.792;10.616;2023-02-23T12:53:38;13.30;99.90
19561;DHT22;9927;47.792;10.616;2023-02-23T13:01:56;13.00;99.90
19561;DHT22;9927;47.792;10.616;2023-02-23T13:04:46;13.00;99.90
19561;DHT22;9927;47.792;10.616;2023-02-23T13:07:40;12.80;99.90
19561;DHT22;9927;47.792;10.616;2023-02-23T13:15:45;12.90;99.90
19561;DHT22;9927;47.792;10.616;2023-02-23T13:20:44;13.10;99.90
19561;DHT22;9927;47.792;10.616;2023-02-23T13:26:10;13.30;99.90
19561;DHT22;9927;47.792;10.616;2023-02-23T13:29:01;13.10;99.90
19561;DHT22;9927;47.792;10.616;2023-02-23T13:31:38;13.00;99.90
19561;DHT22;9927;47.792;10.616;2023-02-23T13:34:15;13.00;99.90
19561;DHT22;9927;47.792;10.616;2023-02-23T13:36:47;13.10;99.90
19561;DHT22;9927;47.792;10.616;2023-02-23T13:44:59;13.20;99.90
19561;DHT22;9927;47.792;10.616;2023-02-23T13:47:52;13.30;99.90
19561;DHT22;9927;47.792;10.616;2023-02-23T13:50:35;13.30;99.90
19561;DHT22;9927;47.792;10.616;2023-02-23T13:56:18;13.20;99.90
19561;DHT22;9927;47.792;10.616;2023-02-23T13:59:04;13.20;99.90
19561;DHT22;9927;47.792;10.616;2023-02-23T14:01:44;13.20;99.90
19561;DHT22;9927;47.792;10.616;2023-02-23T14:04:23;13.30;99.90
19561;DHT22;9927;47.792;10.616;2023-02-23T14:06:58;13.40;99.90
19561;DHT22;9927;47.792;10.616;2023-02-23T14:09:35;13.50;99.90
19561;DHT22;9927;47.792;10.616;2023-02-23T14:14:38;13.40;99.90
19561;DHT22;9927;47.792;10.616;2023-02-23T14:31:05;13.90;99.90
19561;DHT22;9927;47.792;10.616;2023-02-23T14:33:53;13.80;99.90
19561;DHT22;9927;47.792;10.616;2023-02-23T14:44:13;13.70;99.90
19561;DHT22;9927;47.792;10.616;2023-02-23T14:47:26;13.50;99.90
19561;DHT22;9927;47.792;10.616;2023-02-23T14:52:34;13.70;99.90
19561;DHT22;9927;47.792;10.616;2023-02-23T14:57:40;13.70;99.90
19561;DHT22;9927;47.792;10.616;2023-02-23T15:03:00;13.70;99.90
19561;DHT22;9927;47.792;10.616;2023-02-23T15:06:00;13.70;99.90
19561;DHT22;9927;47.792;10.616;2023-02-23T15:08:29;13.80;99.90
19561;DHT22;9927;47.792;10.616;2023-02-23T15:13:34;13.80;99.90
19561;DHT22;9927;47.792;10.616;2023-02-23T15:16:14;13.60;99.90
19561;DHT22;9927;47.792;10.616;2023-02-23T15:18:43;13.40;99.90
19561;DHT22;9927;47.792;10.616;2023-02-23T15:21:12;13.30;99.90
19561;DHT22;9927;47.792;10.616;2023-02-23T15:23:47;13.30;99.90
19561;DHT22;9927;47.792;10.616;2023-02-23T15:26:32;13.30;99.90
19561;DHT22;9927;47.792;10.616;2023-02-23T15:29:12;13.40;99.90
19561;DHT22;9927;47.792;10.616;2023-02-23T15:31:44;13.50;99.90
19561;DHT22;9927;47.792;10.616;2023-02-23T15:34:19;13.50;99.90
19561;DHT22;9927;47.792;10.616;2023-02-23T15:37:14;13.50;99.90
19561;DHT22;9927;47.792;10.616;2023-02-23T15:39:59;13.20;99.90
19561;DHT22;9927;47.792;10.616;2023-02-23T15:42:37;12.90;99.90
19561;DHT22;9927;47.792;10.616;2023-02-23T15:47:52;12.40;99.90
19561;DHT22;9927;47.792;10.616;2023-02-23T15:50:38;12.20;99.90
19561;DHT22;9927;47.792;10.616;2023-02-23T15:53:09;12.00;99.90
19561;DHT22;9927;47.792;10.616;2023-02-23T15:55:42;11.80;99.90
19561;DHT22;9927;47.792;10.616;2023-02-23T15:58:12;11.90;99.90
19561;DHT22;9927;47.792;10.616;2023-02-23T16:00:49;11.80;99.90
19561;DHT22;9927;47.792;10.616;2023-02-23T16:03:28;11.80;99.90
19561;DHT22;9927;47.792;10.616;2023-02-23T16:08:29;11.70;99.90
19561;DHT22;9927;47.792;10.616;2023-02-23T16:11:11;11.70;99.90
19561;DHT22;9927;47.792;10.616;2023-02-23T16:13:45;11.70;99.90
19561;DHT22;9927;47.792;10.616;2023-02-23T16:16:15;11.70;99.90
19561;DHT22;9927;47.792;10.616;2023-02-23T16:18:52;11.70;99.90
19561;DHT22;9927;47.792;10.616;2023-02-23T16:21:23;11.60;99.90
19561;DHT22;9927;47.792;10.616;2023-02-23T16:23:54;11.60;99.90
19561;DHT22;9927;47.792;10.616;2023-02-23T16:26:22;11.50;99.90
19561;DHT22;9927;47.792;10.616;2023-02-23T16:28:56;11.40;99.90
19561;DHT22;9927;47.792;10.616;2023-02-23T16:31:42;11.10;99.90
19561;DHT22;9927;47.792;10.616;2023-02-23T16:34:44;11.00;99.90
19561;DHT22;9927;47.792;10.616;2023-02-23T16:37:19;10.90;99.90
19561;DHT22;9927;47.792;10.616;2023-02-23T16:39:49;10.90;99.90
19561;DHT22;9927;47.792;10.616;2023-02-23T16:42:30;10.80;99.90
19561;DHT22;9927;47.792;10.616;2023-02-23T16:44:58;10.70;99.90
19561;DHT22;9927;47.792;10.616;2023-02-23T16:47:41;10.40;99.90
19561;DHT22;9927;47.792;10.616;2023-02-23T16:50:14;10.20;99.90
19561;DHT22;9927;47.792;10.616;2023-02-23T16:52:48;10.00;99.90
19561;DHT22;9927;47.792;10.616;2023-02-23T16:55:25;10.00;99.90
19561;DHT22;9927;47.792;10.616;2023-02-23T16:57:58;10.00;99.90
19561;DHT22;9927;47.792;10.616;2023-02-23T17:00:31;9.90;99.90
19561;DHT22;9927;47.792;10.616;2023-02-23T17:02:58;9.90;99.90
19561;DHT22;9927;47.792;10.616;2023-02-23T17:05:31;9.90;99.90
19561;DHT22;9927;47.792;10.616;2023-02-23T17:07:58;9.70;99.90
19561;DHT22;9927;47.792;10.616;2023-02-23T17:10:33;9.60;99.90
19561;DHT22;9927;47.792;10.616;2023-02-23T17:13:04;9.60;99.90
19561;DHT22;9927;47.792;10.616;2023-02-23T17:15:35;9.60;99.90
19561;DHT22;9927;47.792;10.616;2023-02-23T17:18:03;9.60;99.90
19561;DHT22;9927;47.792;10.616;2023-02-23T17:20:31;9.40;99.90
19561;DHT22;9927;47.792;10.616;2023-02-23T17:23:00;9.40;99.90
19561;DHT22;9927;47.792;10.616;2023-02-23T17:25:28;9.10;99.90
19561;DHT22;9927;47.792;10.616;2023-02-23T17:27:57;8.70;99.90
19561;DHT22;9927;47.792;10.616;2023-02-23T17:30:25;8.70;99.90
19561;DHT22;9927;47.792;10.616;2023-02-23T17:32:55;8.70;99.90
19561;DHT22;9927;47.792;10.616;2023-02-23T17:35:23;8.70;99.90
19561;DHT22;9927;47.792;10.616;2023-02-23T17:37:52;8.70;99.90
19561;DHT22;9927;47.792;10.616;2023-02-23T17:40:22;8.70;99.90
19561;DHT22;9927;47.792;10.616;2023-02-23T17:42:56;8.60;99.90
19561;DHT22;9927;47.792;10.616;2023-02-23T17:45:25;8.50;99.90
19561;DHT22;9927;47.792;10.616;2023-02-23T17:47:52;8.40;99.90
19561;DHT22;9927;47.792;10.616;2023-02-23T17:50:20;8.40;99.90
19561;DHT22;9927;47.792;10.616;2023-02-23T17:52:49;8.00;99.90
19561;DHT22;9927;47.792;10.616;2023-02-23T17:55:17;7.60;99.90
19561;DHT22;9927;47.792;10.616;2023-02-23T17:57:45;7.60;99.90
19561;DHT22;9927;47.792;10.616;2023-02-23T18:00:16;7.60;99.90
19561;DHT22;9927;47.792;10.616;2023-02-23T18:02:44;7.60;99.90
19561;DHT22;9927;47.792;10.616;2023-02-23T18:05:13;7.70;99.90
19561;DHT22;9927;47.792;10.616;2023-02-23T18:07:41;7.70;99.90
19561;DHT22;9927;47.792;10.616;2023-02-23T18:10:09;7.70;99.90
19561;DHT22;9927;47.792;10.616;2023-02-23T18:12:37;7.60;99.90
19561;DHT22;9927;47.792;10.616;2023-02-23T18:15:05;7.50;99.90
19561;DHT22;9927;47.792;10.616;2023-02-23T18:17:33;7.50;99.90
19561;DHT22;9927;47.792;10.616;2023-02-23T18:20:04;7.40;99.90
19561;DHT22;9927;47.792;10.616;2023-02-23T18:22:32;7.40;99.90
19561;DHT22;9927;47.792;10.616;2023-02-23T18:24:59;7.30;99.90
19561;DHT22;9927;47.792;10.616;2023-02-23T18:27:26;7.30;99.90
19561;DHT22;9927;47.792;10.616;2023-02-23T18:29:54;7.20;99.90
19561;DHT22;9927;47.792;10.616;2023-02-23T18:32:21;7.10;99.90
19561;DHT22;9927;47.792;10.616;2023-02-23T18:34:48;7.10;99.90
19561;DHT22;9927;47.792;10.616;2023-02-23T18:37:17;7.10;99.90
19561;DHT22;9927;47.792;10.616;2023-02-23T18:39:52;7.00;99.90
19561;DHT22;9927;47.792;10.616;2023-02-23T18:42:20;6.90;99.90
19561;DHT22;9927;47.792;10.616;2023-02-23T18:44:47;6.90;99.90
19561;DHT22;9927;47.792;10.616;2023-02-23T18:47:14;6.90;99.90
19561;DHT22;9927;47.792;10.616;2023-02-23T18:49:42;6.80;99.90
19561;DHT22;9927;47.792;10.616;2023-02-23T18:52:09;6.70;99.90
19561;DHT22;9927;47.792;10.616;2023-02-23T18:54:36;6.70;99.90
19561;DHT22;9927;47.792;10.616;2023-02-23T18:57:05;6.70;99.90
19561;DHT22;9927;47.792;10.616;2023-02-23T18:59:33;6.40;99.90
19561;DHT22;9927;47.792;10.616;2023-02-23T19:02:00;6.30;99.90
19561;DHT22;9927;47.792;10.616;2023-02-23T19:04:27;6.20;99.90
19561;DHT22;9927;47.792;10.616;2023-02-23T19:06:54;6.30;99.90
19561;DHT22;9927;47.792;10.616;2023-02-23T19:09:21;6.30;99.90
19561;DHT22;9927;47.792;10.616;2023-02-23T19:11:49;6.20;99.90
19561;DHT22;9927;47.792;10.616;2023-02-23T19:14:18;6.20;99.90
19561;DHT22;9927;47.792;10.616;2023-02-23T19:16:49;6.20;99.90
19561;DHT22;9927;47.792;10.616;2023-02-23T19:19:17;6.20;99.90
19561;DHT22;9927;47.792;10.616;2023-02-23T19:21:44;6.10;99.90
19561;DHT22;9927;47.792;10.616;2023-02-23T19:24:11;6.10;99.90
19561;DHT22;9927;47.792;10.616;2023-02-23T19:26:38;6.00;99.90
19561;DHT22;9927;47.792;10.616;2023-02-23T19:29:06;5.90;99.90
19561;DHT22;9927;47.792;10.616;2023-02-23T19:31:34;5.40;99.90
19561;DHT22;9927;47.792;10.616;2023-02-23T19:34:02;5.40;99.90
19561;DHT22;9927;47.792;10.616;2023-02-23T19:36:31;5.40;99.90
19561;DHT22;9927;47.792;10.616;2023-02-23T19:39:02;5.50;99.90
19561;DHT22;9927;47.792;10.616;2023-02-23T19:41:38;5.50;99.90
19561;DHT22;9927;47.792;10.616;2023-02-23T19:44:05;5.50;99.90
19561;DHT22;9927;47.792;10.616;2023-02-23T19:46:33;5.60;99.90
19561;DHT22;9927;47.792;10.616;2023-02-23T19:49:02;5.60;99.90
19561;DHT22;9927;47.792;10.616;2023-02-23T19:51:29;5.50;99.90
19561;DHT22;9927;47.792;10.616;2023-02-23T19:53:57;5.40;99.90
19561;DHT22;9927;47.792;10.616;2023-02-23T19:56:25;5.40;99.90
19561;DHT22;9927;47.792;10.616;2023-02-23T19:58:55;5.40;99.90
19561;DHT22;9927;47.792;10.616;2023-02-23T20:01:23;5.20;99.90
19561;DHT22;9927;47.792;10.616;2023-02-23T20:03:54;5.20;99.90
19561;DHT22;9927;47.792;10.616;2023-02-23T20:06:23;5.10;99.90
19561;DHT22;9927;47.792;10.616;2023-02-23T20:08:51;5.00;99.90
19561;DHT22;9927;47.792;10.616;2023-02-23T20:11:18;5.00;99.90
19561;DHT22;9927;47.792;10.616;2023-02-23T20:13:46;5.00;99.90
19561;DHT22;9927;47.792;10.616;2023-02-23T20:16:17;5.00;99.90
19561;DHT22;9927;47.792;10.616;2023-02-23T20:18:45;5.00;99.90
19561;DHT22;9927;47.792;10.616;2023-02-23T20:21:15;5.00;99.90
19561;DHT22;9927;47.792;10.616;2023-02-23T20:23:44;5.00;99.90
19561;DHT22;9927;47.792;10.616;2023-02-23T20:26:15;4.90;99.90
19561;DHT22;9927;47.792;10.616;2023-02-23T20:28:43;4.90;99.90
19561;DHT22;9927;47.792;10.616;2023-02-23T20:31:17;4.70;99.90
19561;DHT22;9927;47.792;10.616;2023-02-23T20:33:47;4.70;99.90
19561;DHT22;9927;47.792;10.616;2023-02-23T20:36:18;4.60;99.90
19561;DHT22;9927;47.792;10.616;2023-02-23T20:38:46;4.40;99.90
19561;DHT22;9927;47.792;10.616;2023-02-23T20:41:13;4.40;99.90
19561;DHT22;9927;47.792;10.616;2023-02-23T20:43:40;4.30;99.90
19561;DHT22;9927;47.792;10.616;2023-02-23T20:46:14;4.30;99.90
19561;DHT22;9927;47.792;10.616;2023-02-23T20:48:42;4.30;99.90
19561;DHT22;9927;47.792;10.616;2023-02-23T20:51:10;4.30;99.90
19561;DHT22;9927;47.792;10.616;2023-02-23T20:53:41;4.30;99.90
19561;DHT22;9927;47.792;10.616;2023-02-23T20:56:15;4.40;99.90
19561;DHT22;9927;47.792;10.616;2023-02-23T20:58:44;4.40;99.90
19561;DHT22;9927;47.792;10.616;2023-02-23T21:01:17;4.50;99.90
19561;DHT22;9927;47.792;10.616;2023-02-23T21:03:48;4.50;99.90
19561;DHT22;9927;47.792;10.616;2023-02-23T21:06:18;4.40;99.90
19561;DHT22;9927;47.792;10.616;2023-02-23T21:08:47;4.20;99.90
19561;DHT22;9927;47.792;10.616;2023-02-23T21:11:16;3.90;99.90
19561;DHT22;9927;47.792;10.616;2023-02-23T21:13:44;3.50;99.90
19561;DHT22;9927;47.792;10.616;2023-02-23T21:16:13;3.50;99.90
19561;DHT22;9927;47.792;10.616;2023-02-23T21:18:41;3.50;99.90
19561;DHT22;9927;47.792;10.616;2023-02-23T21:21:09;3.60;99.90
19561;DHT22;9927;47.792;10.616;2023-02-23T21:23:38;3.60;99.90
19561;DHT22;9927;47.792;10.616;2023-02-23T21:26:05;3.60;99.90
19561;DHT22;9927;47.792;10.616;2023-02-23T21:28:33;3.70;99.90
19561;DHT22;9927;47.792;10.616;2023-02-23T21:31:01;3.80;99.90
19561;DHT22;9927;47.792;10.616;2023-02-23T21:33:28;3.80;99.90
19561;DHT22;9927;47.792;10.616;2023-02-23T21:35:57;3.80;99.90
19561;DHT22;9927;47.792;10.616;2023-02-23T21:38:24;3.90;99.90
19561;DHT22;9927;47.792;10.616;2023-02-23T21:40:52;3.90;99.90
19561;DHT22;9927;47.792;10.616;2023-02-23T21:43:19;3.90;99.90
19561;DHT22;9927;47.792;10.616;2023-02-23T21:45:48;3.90;99.90
19561;DHT22;9927;47.792;10.616;2023-02-23T21:48:15;3.90;99.90
19561;DHT22;9927;47.792;10.616;2023-02-23T21:50:42;3.70;99.90
19561;DHT22;9927;47.792;10.616;2023-02-23T21:53:10;3.70;99.90